createdAt,value
2022-10-31T00:01:34.133Z,100216.72
2022-10-31T00:04:01.187Z,100218.81
2022-10-31T00:06:29.233Z,100213.03
2022-10-31T00:09:02.098Z,100219.72
2022-10-31T00:11:29.760Z,100224.28
2022-10-31T00:13:59.685Z,100206.91
2022-10-31T00:16:27.771Z,100214.38
2022-10-31T00:18:58.664Z,100212.34
2022-10-31T00:21:26.300Z,100207.63
2022-10-31T00:23:53.596Z,100206.63
2022-10-31T00:26:21.700Z,100207.72
2022-10-31T00:28:48.941Z,100208.03
2022-10-31T00:31:17.840Z,100209.34
2022-10-31T00:33:45.247Z,100201.16
2022-10-31T00:36:16.746Z,100204.31
2022-10-31T00:38:45.189Z,100201.69
2022-10-31T00:41:15.624Z,100199.84
2022-10-31T00:43:43.982Z,100204.22
2022-10-31T00:46:12.295Z,100201.78
2022-10-31T00:48:39.536Z,100207.22
2022-10-31T00:51:06.664Z,100198.13
2022-10-31T00:53:33.695Z,100207.88
2022-10-31T00:56:00.989Z,100209.75
2022-10-31T00:58:28.275Z,100199.22
2022-10-31T01:00:56.292Z,100196.53
2022-10-31T01:03:25.988Z,100208.13
2022-10-31T01:06:05.426Z,100208.13
2022-10-31T01:08:34.531Z,100204.16
2022-10-31T01:11:09.220Z,100204.97
2022-10-31T01:13:36.960Z,100213.47
2022-10-31T01:16:07.075Z,100208.06
2022-10-31T01:18:35.042Z,100214.47
2022-10-31T01:21:09.603Z,100210.78
2022-10-31T01:23:37.366Z,100212.63
2022-10-31T01:26:12.655Z,100213.06
2022-10-31T01:28:48.201Z,100215.13
2022-10-31T01:31:16.071Z,100220.09
2022-10-31T01:33:43.683Z,100216.22
2022-10-31T01:36:48.212Z,100216.44
2022-10-31T01:39:16.532Z,100225.78
2022-10-31T01:41:47.736Z,100220.19
2022-10-31T01:44:14.565Z,100226.84
2022-10-31T01:46:47.213Z,100224.56
2022-10-31T01:49:44.530Z,100227.69
2022-10-31T01:52:24.365Z,100227.28
2022-10-31T01:55:23.158Z,100225.25
2022-10-31T01:57:55.941Z,100225.66
2022-10-31T02:00:23.525Z,100213.69
2022-10-31T02:02:52.670Z,100218.88
2022-10-31T02:05:25.440Z,100213.28
2022-10-31T02:08:09.741Z,100221.16
2022-10-31T02:10:38.098Z,100211.88
2022-10-31T02:13:08.336Z,100209.81
2022-10-31T02:15:43.969Z,100210.44
2022-10-31T02:18:11.198Z,100214.59
2022-10-31T02:21:24.652Z,100210.44
2022-10-31T02:24:30.939Z,100206.31
2022-10-31T02:27:08.435Z,100208.19
2022-10-31T02:30:19.457Z,100211.31
2022-10-31T02:32:55.288Z,100207.16
2022-10-31T02:35:43.677Z,100211.31
2022-10-31T02:38:42.987Z,100206.31
2022-10-31T02:41:52.159Z,100200.13
2022-10-31T02:44:46.681Z,100201.16
2022-10-31T02:47:18.049Z,100199.91
2022-10-31T02:50:07.613Z,100196.00
2022-10-31T02:52:36.529Z,100200.97
2022-10-31T02:55:31.087Z,100190.03
2022-10-31T02:58:12.586Z,100186.31
2022-10-31T03:01:11.314Z,100184.66
2022-10-31T03:04:06.609Z,100192.09
2022-10-31T03:06:59.980Z,100203.28
2022-10-31T03:09:35.000Z,100191.50
2022-10-31T03:12:26.098Z,100190.66
2022-10-31T03:14:54.628Z,100193.97
2022-10-31T03:17:33.134Z,100197.25
2022-10-31T03:20:03.801Z,100194.38
2022-10-31T03:22:34.044Z,100197.69
2022-10-31T03:25:05.243Z,100187.34
2022-10-31T03:27:36.715Z,100193.13
2022-10-31T03:30:08.627Z,100191.88
2022-10-31T03:32:55.273Z,100191.25
2022-10-31T03:35:26.822Z,100196.22
2022-10-31T03:37:56.076Z,100190.44
2022-10-31T03:40:26.933Z,100196.84
2022-10-31T03:43:01.970Z,100185.28
2022-10-31T03:45:32.005Z,100194.53
2022-10-31T03:48:00.719Z,100195.59
2022-10-31T03:50:40.238Z,100188.56
2022-10-31T03:53:22.366Z,100189.38
2022-10-31T03:56:00.233Z,100195.59
2022-10-31T03:58:38.112Z,100187.13
2022-10-31T04:01:10.945Z,100179.44
2022-10-31T04:03:39.700Z,100173.84
2022-10-31T04:06:11.850Z,100175.31
2022-10-31T04:08:49.448Z,100173.03
2022-10-31T04:11:24.251Z,100162.91
2022-10-31T04:14:12.536Z,100158.16
2022-10-31T04:16:45.325Z,100159.81
2022-10-31T04:19:13.872Z,100160.41
2022-10-31T04:21:44.187Z,100162.91
2022-10-31T04:24:12.066Z,100150.91
2022-10-31T04:26:40.045Z,100153.16
2022-10-31T04:29:07.757Z,100156.25
2022-10-31T04:31:34.721Z,100166.78
2022-10-31T04:34:01.695Z,100170.91
2022-10-31T04:36:28.711Z,100169.06
2022-10-31T04:38:56.401Z,100164.53
2022-10-31T04:41:36.425Z,100170.72
2022-10-31T04:44:07.397Z,100167.41
2022-10-31T04:46:34.412Z,100170.09
2022-10-31T04:49:03.874Z,100165.97
2022-10-31T04:51:30.937Z,100173.22
2022-10-31T04:53:58.020Z,100170.75
2022-10-31T04:56:43.443Z,100178.38
2022-10-31T04:59:15.696Z,100188.94
2022-10-31T05:01:52.703Z,100181.09
2022-10-31T05:04:26.382Z,100184.81
2022-10-31T05:06:53.458Z,100187.75
2022-10-31T05:09:20.485Z,100186.09
2022-10-31T05:11:47.504Z,100188.97
2022-10-31T05:14:48.614Z,100184.25
2022-10-31T05:17:34.373Z,100186.34
2022-10-31T05:20:25.969Z,100185.69
2022-10-31T05:23:11.670Z,100193.13
2022-10-31T05:25:41.874Z,100203.88
2022-10-31T05:28:09.191Z,100194.97
2022-10-31T05:30:36.486Z,100196.84
2022-10-31T05:33:05.163Z,100190.41
2022-10-31T05:35:54.720Z,100187.94
2022-10-31T05:38:40.144Z,100179.03
2022-10-31T05:41:14.188Z,100175.31
2022-10-31T05:43:46.181Z,100154.69
2022-10-31T05:46:13.978Z,100155.25
2022-10-31T05:49:02.881Z,100157.09
2022-10-31T05:52:01.947Z,100160.16
2022-10-31T05:54:38.709Z,100168.41
2022-10-31T05:57:05.728Z,100176.00
2022-10-31T05:59:33.082Z,100172.88
2022-10-31T06:02:01.462Z,100179.69
2022-10-31T06:04:49.141Z,100176.59
2022-10-31T06:07:16.452Z,100170.59
2022-10-31T06:09:43.909Z,100171.84
2022-10-31T06:12:11.346Z,100168.50
2022-10-31T06:15:14.043Z,100179.66
2022-10-31T06:17:43.123Z,100173.84
2022-10-31T06:20:10.759Z,100178.59
2022-10-31T06:22:47.631Z,100176.31
2022-10-31T06:25:14.724Z,100170.31
2022-10-31T06:27:46.226Z,100174.00
2022-10-31T06:30:15.382Z,100176.06
2022-10-31T06:32:43.410Z,100173.59
2022-10-31T06:35:10.964Z,100175.63
2022-10-31T06:37:38.474Z,100181.19
2022-10-31T06:40:28.432Z,100176.88
2022-10-31T06:43:17.073Z,100180.38
2022-10-31T06:45:44.686Z,100182.44
2022-10-31T06:48:42.942Z,100172.53
2022-10-31T06:51:19.657Z,100177.69
2022-10-31T06:53:46.875Z,100171.09
2022-10-31T06:56:16.657Z,100169.91
2022-10-31T06:58:48.764Z,100166.19
2022-10-31T07:01:18.118Z,100166.59
2022-10-31T07:03:45.187Z,100167.25
2022-10-31T07:06:12.262Z,100170.13
2022-10-31T07:08:39.909Z,100164.38
2022-10-31T07:11:07.911Z,100168.94
2022-10-31T07:13:34.918Z,100164.00
2022-10-31T07:16:07.655Z,100166.91
2022-10-31T07:18:36.368Z,100169.00
2022-10-31T07:21:04.264Z,100173.78
2022-10-31T07:23:33.206Z,100176.66
2022-10-31T07:26:20.178Z,100176.06
2022-10-31T07:28:49.066Z,100169.06
2022-10-31T07:31:19.047Z,100172.16
2022-10-31T07:33:46.234Z,100179.41
2022-10-31T07:36:28.303Z,100175.31
2022-10-31T07:39:00.350Z,100183.59
2022-10-31T07:41:27.371Z,100174.09
2022-10-31T07:43:54.807Z,100169.97
2022-10-31T07:46:41.743Z,100179.91
2022-10-31T07:49:27.441Z,100182.81
2022-10-31T07:52:13.157Z,100174.94
2022-10-31T07:54:59.045Z,100175.78
2022-10-31T07:57:28.455Z,100178.66
2022-10-31T07:59:57.774Z,100179.50
2022-10-31T08:02:25.232Z,100177.03
2022-10-31T08:05:27.505Z,100185.69
2022-10-31T08:08:20.604Z,100181.97
2022-10-31T08:10:48.474Z,100183.81
2022-10-31T08:13:15.721Z,100181.97
2022-10-31T08:15:50.927Z,100184.44
2022-10-31T08:18:18.122Z,100181.94
2022-10-31T08:20:45.600Z,100178.41
2022-10-31T08:23:14.179Z,100180.28
2022-10-31T08:25:43.332Z,100172.41
2022-10-31T08:28:12.568Z,100179.03
2022-10-31T08:30:42.679Z,100170.34
2022-10-31T08:33:28.511Z,100167.63
2022-10-31T08:36:18.120Z,100168.66
2022-10-31T08:39:06.826Z,100164.31
2022-10-31T08:41:33.809Z,100160.13
2022-10-31T08:44:01.717Z,100161.97
2022-10-31T08:46:28.880Z,100159.47
2022-10-31T08:48:55.930Z,100157.81
2022-10-31T08:51:23.784Z,100153.66
2022-10-31T08:53:53.650Z,100159.41
2022-10-31T08:56:23.357Z,100155.50
2022-10-31T08:58:51.979Z,100160.22
2022-10-31T09:01:23.782Z,100159.34
2022-10-31T09:03:50.866Z,100151.47
2022-10-31T09:06:17.960Z,100147.69
2022-10-31T09:08:48.518Z,100149.28
2022-10-31T09:11:15.515Z,100148.00
2022-10-31T09:14:05.173Z,100148.34
2022-10-31T09:16:52.204Z,100146.00
2022-10-31T09:19:23.375Z,100159.81
2022-10-31T09:21:55.006Z,100155.59
2022-10-31T09:24:23.005Z,100160.47
2022-10-31T09:26:50.103Z,100152.09
2022-10-31T09:29:27.116Z,100146.00
2022-10-31T09:31:58.517Z,100152.72
2022-10-31T09:34:28.220Z,100152.22
2022-10-31T09:37:04.070Z,100147.34
2022-10-31T09:39:31.082Z,100158.91
2022-10-31T09:42:22.969Z,100153.44
2022-10-31T09:45:20.164Z,100160.19
2022-10-31T09:48:04.976Z,100162.81
2022-10-31T09:51:06.579Z,100157.13
2022-10-31T09:54:16.309Z,100146.25
2022-10-31T09:56:44.987Z,100151.81
2022-10-31T09:59:35.834Z,100148.16
2022-10-31T10:02:33.124Z,100141.03
2022-10-31T10:05:05.296Z,100147.16
2022-10-31T10:08:24.556Z,100143.56
2022-10-31T10:12:03.730Z,100141.81
2022-10-31T10:15:15.112Z,100138.22
2022-10-31T10:18:10.201Z,100131.06
2022-10-31T10:20:43.986Z,100124.13
2022-10-31T10:23:47.275Z,100120.53
2022-10-31T10:26:19.810Z,100121.72
2022-10-31T10:29:03.538Z,100115.84
2022-10-31T10:31:39.874Z,100114.34
2022-10-31T10:34:25.395Z,100115.72
2022-10-31T10:37:05.506Z,100117.75
2022-10-31T10:39:39.123Z,100110.22
2022-10-31T10:42:33.591Z,100107.06
2022-10-31T10:54:42.063Z,100083.00
2022-10-31T10:57:34.178Z,100081.97
2022-10-31T11:00:16.856Z,100076.09
2022-10-31T11:02:46.511Z,100074.59
2022-10-31T11:05:36.423Z,100065.75
2022-10-31T11:08:05.406Z,100071.53
2022-10-31T11:10:34.142Z,100071.84
2022-10-31T11:13:06.838Z,100069.28
2022-10-31T11:15:51.309Z,100067.38
2022-10-31T11:21:01.328Z,100055.63
2022-10-31T11:23:30.009Z,100051.66
2022-10-31T11:26:19.234Z,100055.75
2022-10-31T11:29:00.566Z,100049.84
2022-10-31T11:31:30.461Z,100041.53
2022-10-31T11:34:14.709Z,100036.44
2022-10-31T11:36:45.291Z,100041.63
2022-10-31T11:39:22.852Z,100036.00
2022-10-31T11:41:53.036Z,100029.53
2022-10-31T11:44:29.885Z,100028.22
2022-10-31T11:47:01.124Z,100029.84
2022-10-31T11:49:39.755Z,100029.63
2022-10-31T11:52:22.419Z,100021.28
2022-10-31T11:55:11.257Z,100014.56
2022-10-31T11:57:50.515Z,100008.06
2022-10-31T12:00:30.528Z,100006.53
2022-10-31T12:03:24.525Z,99993.59
2022-10-31T12:06:24.653Z,99997.72
2022-10-31T12:08:51.638Z,99985.84
2022-10-31T12:11:49.817Z,99981.81
2022-10-31T12:14:34.792Z,99980.50
2022-10-31T12:17:39.143Z,99978.41
2022-10-31T12:20:59.364Z,99986.50
2022-10-31T12:24:16.553Z,99984.63
2022-10-31T12:27:29.557Z,99993.44
2022-10-31T12:30:27.857Z,99991.00
2022-10-31T12:33:18.810Z,99991.47
2022-10-31T12:36:32.606Z,99980.66
2022-10-31T12:39:17.488Z,99987.13
2022-10-31T12:42:11.282Z,99983.59
2022-10-31T12:45:13.877Z,99977.63
2022-10-31T12:47:40.721Z,99960.00
2022-10-31T12:50:25.642Z,99956.69
2022-10-31T12:53:26.725Z,99955.06
2022-10-31T12:56:33.031Z,99951.53
2022-10-31T12:59:22.529Z,99947.19
2022-10-31T13:02:19.898Z,99945.31
2022-10-31T13:05:07.080Z,99926.38
2022-10-31T13:07:45.028Z,99913.44
2022-10-31T13:10:18.219Z,99897.56
2022-10-31T13:12:47.758Z,99882.97
2022-10-31T13:15:21.649Z,99866.03
2022-10-31T13:17:54.659Z,99856.59
2022-10-31T13:20:44.971Z,99857.41
2022-10-31T13:26:36.744Z,99854.97
2022-10-31T13:29:36.414Z,99852.50
2022-10-31T13:32:08.119Z,99855.44
2022-10-31T13:34:47.935Z,99857.09
2022-10-31T13:37:55.068Z,99855.44
2022-10-31T13:40:46.595Z,99855.22
2022-10-31T13:43:57.373Z,99858.22
2022-10-31T13:46:40.848Z,99865.88
2022-10-31T13:49:29.793Z,99867.81
2022-10-31T13:52:27.015Z,99864.72
2022-10-31T13:54:58.029Z,99858.94
2022-10-31T13:57:42.630Z,99862.38
2022-10-31T14:00:21.930Z,99881.81
2022-10-31T14:02:58.367Z,99893.03
2022-10-31T14:05:34.152Z,99887.25
2022-10-31T14:08:04.463Z,99889.06
2022-10-31T14:10:46.444Z,99870.22
2022-10-31T14:13:23.908Z,99874.97
2022-10-31T14:15:59.296Z,99869.09
2022-10-31T14:18:33.364Z,99868.13
2022-10-31T14:21:00.326Z,99877.13
2022-10-31T14:23:45.492Z,99871.47
2022-10-31T14:26:31.981Z,99873.66
2022-10-31T14:29:00.382Z,99870.44
2022-10-31T14:31:43.609Z,99865.25
2022-10-31T14:34:23.680Z,99855.28
2022-10-31T14:37:11.521Z,99856.56
2022-10-31T14:40:00.327Z,99847.88
2022-10-31T14:42:57.835Z,99838.88
2022-10-31T14:45:46.463Z,99840.66
2022-10-31T14:49:00.291Z,99831.09
2022-10-31T14:51:39.511Z,99828.59
2022-10-31T14:54:11.609Z,99829.59
2022-10-31T14:56:50.524Z,99836.00
2022-10-31T14:59:30.286Z,99840.78
2022-10-31T15:02:18.010Z,99845.81
2022-10-31T15:04:47.130Z,99841.66
2022-10-31T15:07:25.103Z,99845.38
2022-10-31T15:10:06.847Z,99849.53
2022-10-31T15:12:39.603Z,99854.09
2022-10-31T15:15:24.201Z,99848.25
2022-10-31T15:17:59.693Z,99843.25
2022-10-31T15:20:31.426Z,99844.22
2022-10-31T15:22:59.886Z,99819.78
2022-10-31T15:25:35.275Z,99822.44
2022-10-31T15:28:02.970Z,99831.03
2022-10-31T15:30:30.995Z,99828.22
2022-10-31T15:32:59.196Z,99816.28
2022-10-31T15:35:31.604Z,99806.44
2022-10-31T15:38:00.518Z,99786.88
2022-10-31T15:40:29.039Z,99773.25
2022-10-31T15:43:00.325Z,99766.13
2022-10-31T15:45:30.736Z,99766.28
2022-10-31T15:48:00.368Z,99765.16
2022-10-31T15:50:37.405Z,99772.34
2022-10-31T15:53:07.147Z,99766.03
2022-10-31T15:55:46.064Z,99758.66
2022-10-31T15:58:16.864Z,99747.75
2022-10-31T16:00:44.418Z,99732.28
2022-10-31T16:03:20.509Z,99723.03
2022-10-31T16:05:55.724Z,99709.41
2022-10-31T16:08:36.386Z,99698.75
2022-10-31T16:11:13.496Z,99708.66
2022-10-31T16:14:03.225Z,99703.16
2022-10-31T16:16:35.560Z,99682.84
2022-10-31T16:19:06.290Z,99650.94
2022-10-31T16:21:40.685Z,99636.88
2022-10-31T16:24:28.709Z,99649.22
2022-10-31T16:27:18.223Z,99656.75
2022-10-31T16:29:48.158Z,99650.75
2022-10-31T16:32:36.674Z,99657.72
2022-10-31T16:35:10.103Z,99667.09
2022-10-31T16:37:44.210Z,99673.81
2022-10-31T16:40:16.123Z,99680.28
2022-10-31T16:42:44.630Z,99689.66
2022-10-31T16:45:21.153Z,99698.00
2022-10-31T16:47:49.326Z,99713.38
2022-10-31T16:50:25.130Z,99742.25
2022-10-31T16:53:12.323Z,99763.84
2022-10-31T16:55:47.119Z,99780.28
2022-10-31T16:58:25.261Z,99761.13
2022-10-31T17:00:53.434Z,99743.31
2022-10-31T17:03:20.880Z,99738.97
2022-10-31T17:05:48.257Z,99746.50
2022-10-31T17:08:15.587Z,99735.94
2022-10-31T17:10:45.473Z,99725.38
2022-10-31T17:13:20.260Z,99723.16
2022-10-31T17:15:51.363Z,99710.72
2022-10-31T17:18:22.874Z,99695.59
2022-10-31T17:20:59.812Z,99692.88
2022-10-31T17:23:28.561Z,99680.22
2022-10-31T17:25:56.695Z,99689.97
2022-10-31T17:28:23.752Z,99683.50
2022-10-31T17:30:50.730Z,99685.16
2022-10-31T17:33:18.012Z,99691.34
2022-10-31T17:35:45.456Z,99676.22
2022-10-31T17:38:12.594Z,99673.53
2022-10-31T17:40:43.761Z,99671.66
2022-10-31T17:43:12.049Z,99674.59
2022-10-31T17:45:41.149Z,99667.53
2022-10-31T17:48:12.078Z,99661.81
2022-10-31T17:50:39.095Z,99663.94
2022-10-31T17:53:06.118Z,99651.75
2022-10-31T17:55:36.155Z,99638.75
2022-10-31T17:58:05.213Z,99642.16
2022-10-31T18:00:32.919Z,99640.75
2022-10-31T18:03:01.453Z,99646.06
2022-10-31T18:05:28.729Z,99665.63
2022-10-31T18:07:56.524Z,99688.53
2022-10-31T18:10:26.591Z,99695.94
2022-10-31T18:12:53.634Z,99702.97
2022-10-31T18:15:20.697Z,99712.56
2022-10-31T18:17:47.750Z,99712.78
2022-10-31T18:20:14.706Z,99704.94
2022-10-31T18:22:41.936Z,99682.78
2022-10-31T18:25:09.272Z,99691.91
2022-10-31T18:27:36.228Z,99702.13
2022-10-31T18:30:04.028Z,99737.44
2022-10-31T18:32:31.039Z,99751.16
2022-10-31T18:34:58.086Z,99736.03
2022-10-31T18:37:25.024Z,99746.81
2022-10-31T18:39:51.987Z,99734.38
2022-10-31T18:42:18.944Z,99738.38
2022-10-31T18:44:45.921Z,99745.06
2022-10-31T18:47:12.956Z,99751.72
2022-10-31T18:49:40.013Z,99743.28
2022-10-31T18:52:07.045Z,99729.69
2022-10-31T18:54:33.991Z,99729.13
2022-10-31T18:57:00.964Z,99732.50
2022-10-31T18:59:27.917Z,99755.81
2022-10-31T19:01:55.004Z,99735.75
2022-10-31T19:04:22.320Z,99725.72
2022-10-31T19:06:49.302Z,99726.41
2022-10-31T19:09:16.292Z,99713.84
2022-10-31T19:11:43.328Z,99723.47
2022-10-31T19:14:12.652Z,99728.50
2022-10-31T19:16:39.706Z,99729.78
2022-10-31T19:19:06.801Z,99709.75
2022-10-31T19:21:33.842Z,99715.13
2022-10-31T19:24:02.138Z,99699.44
2022-10-31T19:26:29.397Z,99704.03
2022-10-31T19:28:56.992Z,99711.25
2022-10-31T19:31:24.533Z,99704.22
2022-10-31T19:33:51.610Z,99710.66
2022-10-31T19:36:20.489Z,99726.25
2022-10-31T19:38:51.335Z,99712.19
2022-10-31T19:41:26.007Z,99708.91
2022-10-31T19:43:54.147Z,99701.06
2022-10-31T19:46:40.410Z,99711.47
2022-10-31T19:49:11.747Z,99721.06
2022-10-31T19:51:38.805Z,99711.56
2022-10-31T19:54:06.194Z,99714.97
2022-10-31T19:56:33.229Z,99711.91
2022-10-31T19:59:00.184Z,99712.13
2022-10-31T20:01:27.472Z,99712.56
2022-10-31T20:03:54.503Z,99719.47
2022-10-31T20:06:29.449Z,99739.78
2022-10-31T20:08:56.670Z,99741.91
2022-10-31T20:11:25.809Z,99763.09
2022-10-31T20:13:55.970Z,99768.09
2022-10-31T20:16:23.909Z,99759.44
2022-10-31T20:18:51.194Z,99758.81
2022-10-31T20:21:22.832Z,99754.72
2022-10-31T20:23:49.861Z,99766.75
2022-10-31T20:26:19.402Z,99770.94
2022-10-31T20:28:46.774Z,99774.69
2022-10-31T20:31:22.539Z,99772.44
2022-10-31T20:33:50.137Z,99784.72
2022-10-31T20:36:21.049Z,99766.53
2022-10-31T20:38:48.520Z,99776.94
2022-10-31T20:41:17.143Z,99767.69
2022-10-31T20:43:45.097Z,99751.38
2022-10-31T20:46:21.622Z,99755.34
2022-10-31T20:48:48.974Z,99745.84
2022-10-31T20:51:21.488Z,99749.81
2022-10-31T20:53:50.901Z,99747.38
2022-10-31T20:56:20.866Z,99740.34
2022-10-31T20:58:48.681Z,99745.09
2022-10-31T21:01:25.319Z,99747.22
2022-10-31T21:03:52.943Z,99742.06
2022-10-31T21:06:22.947Z,99740.63
2022-10-31T21:08:50.920Z,99750.19
2022-10-31T21:11:22.374Z,99751.44
2022-10-31T21:13:50.391Z,99732.03
2022-10-31T21:16:27.370Z,99731.44
2022-10-31T21:18:55.159Z,99731.44
2022-10-31T21:21:32.161Z,99723.16
2022-10-31T21:24:12.164Z,99717.78
2022-10-31T21:26:42.678Z,99705.41
2022-10-31T21:29:11.853Z,99705.41
2022-10-31T21:31:40.177Z,99700.00
2022-10-31T21:34:07.825Z,99709.72
2022-10-31T21:36:35.445Z,99716.72
2022-10-31T21:39:03.706Z,99728.09
2022-10-31T21:41:30.809Z,99712.78
2022-10-31T21:43:58.323Z,99719.00
2022-10-31T21:46:30.080Z,99710.31
2022-10-31T21:48:57.665Z,99713.81
2022-10-31T21:51:28.164Z,99712.41
2022-10-31T21:54:14.460Z,99716.38
2022-10-31T21:56:42.360Z,99732.34
2022-10-31T21:59:09.359Z,99723.31
2022-10-31T22:01:37.208Z,99723.38
2022-10-31T22:04:05.562Z,99716.44
2022-10-31T22:06:33.766Z,99713.53
2022-10-31T22:09:03.857Z,99714.22
2022-10-31T22:11:31.016Z,99725.63
2022-10-31T22:14:02.283Z,99727.72
2022-10-31T22:16:30.704Z,99727.09
2022-10-31T22:18:59.882Z,99728.97
2022-10-31T22:21:28.197Z,99725.47
2022-10-31T22:24:03.210Z,99733.97
2022-10-31T22:26:32.493Z,99730.66
2022-10-31T22:29:02.152Z,99715.00
2022-10-31T22:31:31.129Z,99718.50
2022-10-31T22:33:58.545Z,99717.69
2022-10-31T22:36:29.404Z,99710.81
2022-10-31T22:38:56.703Z,99705.25
2022-10-31T22:41:28.388Z,99699.19
2022-10-31T22:43:56.560Z,99706.59
2022-10-31T22:46:30.500Z,99698.94
2022-10-31T22:49:00.905Z,99708.16
2022-10-31T22:51:35.456Z,99709.81
2022-10-31T22:54:03.143Z,99711.06
2022-10-31T22:56:33.344Z,99718.88
2022-10-31T22:59:01.805Z,99718.66
2022-10-31T23:01:33.368Z,99714.13
2022-10-31T23:04:01.607Z,99713.28
2022-10-31T23:06:31.659Z,99722.38
2022-10-31T23:09:01.402Z,99712.91
2022-10-31T23:11:39.047Z,99708.59
2022-10-31T23:14:19.437Z,99707.75
2022-10-31T23:16:55.371Z,99697.84
2022-10-31T23:19:28.852Z,99696.56
2022-10-31T23:22:00.919Z,99709.78
2022-10-31T23:24:39.364Z,99700.69
2022-10-31T23:27:16.822Z,99703.16
2022-10-31T23:29:53.244Z,99712.63
2022-10-31T23:32:25.064Z,99712.38
2022-10-31T23:34:56.651Z,99717.34
2022-10-31T23:37:30.209Z,99708.00
2022-10-31T23:39:57.777Z,99711.28
2022-10-31T23:42:26.004Z,99704.66
2022-10-31T23:44:53.198Z,99704.81
2022-10-31T23:47:21.009Z,99701.66
2022-10-31T23:49:48.387Z,99704.50
2022-10-31T23:52:16.079Z,99700.75
2022-10-31T23:54:43.557Z,99687.31
2022-10-31T23:57:15.188Z,99681.72
2022-10-31T23:59:42.595Z,99687.09
